sensor_id;sensor_type;location;lat;lon;timestamp;pressure;altitude;pressure_sealevel;temperature;humidity
72525;BME280;60547;48.502;8.996;2022-07-29T00:00:09;97737.47;;;19.27;84.88
72525;BME280;60547;48.502;8.996;2022-07-29T00:02:34;97731.84;;;19.27;84.67
72525;BME280;60547;48.502;8.996;2022-07-29T00:05:00;97733.63;;;19.24;84.79
72525;BME280;60547;48.502;8.996;2022-07-29T00:07:26;97724.94;;;19.28;84.82
72525;BME280;60547;48.502;8.996;2022-07-29T00:09:52;97720.47;;;19.16;84.88
72525;BME280;60547;48.502;8.996;2022-07-29T00:12:18;97722.00;;;19.17;84.89
72525;BME280;60547;48.502;8.996;2022-07-29T00:14:44;97715.72;;;19.01;84.27
72525;BME280;60547;48.502;8.996;2022-07-29T00:17:09;97721.84;;;19.00;84.50
72525;BME280;60547;48.502;8.996;2022-07-29T00:19:35;97724.13;;;18.96;84.51
72525;BME280;60547;48.502;8.996;2022-07-29T00:22:00;97726.38;;;18.92;84.93
72525;BME280;60547;48.502;8.996;2022-07-29T00:24:26;97735.78;;;18.83;85.29
72525;BME280;60547;48.502;8.996;2022-07-29T00:26:52;97731.69;;;18.84;84.92
72525;BME280;60547;48.502;8.996;2022-07-29T00:29:18;97730.41;;;18.85;85.06
72525;BME280;60547;48.502;8.996;2022-07-29T00:31:43;97726.31;;;18.86;84.79
72525;BME280;60547;48.502;8.996;2022-07-29T00:34:09;97725.00;;;18.82;84.82
72525;BME280;60547;48.502;8.996;2022-07-29T00:36:54;97718.59;;;18.81;85.48
72525;BME280;60547;48.502;8.996;2022-07-29T00:39:20;97702.94;;;18.60;85.46
72525;BME280;60547;48.502;8.996;2022-07-29T00:41:45;97720.78;;;18.71;85.07
72525;BME280;60547;48.502;8.996;2022-07-29T00:44:10;97718.47;;;18.70;85.35
72525;BME280;60547;48.502;8.996;2022-07-29T00:46:36;97712.28;;;18.66;86.15
72525;BME280;60547;48.502;8.996;2022-07-29T00:49:01;97705.38;;;18.67;86.02
72525;BME280;60547;48.502;8.996;2022-07-29T00:51:27;97700.84;;;18.75;85.39
72525;BME280;60547;48.502;8.996;2022-07-29T00:53:53;97690.06;;;18.74;84.66
72525;BME280;60547;48.502;8.996;2022-07-29T00:56:19;97696.31;;;18.83;84.35
72525;BME280;60547;48.502;8.996;2022-07-29T00:58:46;97710.06;;;18.76;85.04
72525;BME280;60547;48.502;8.996;2022-07-29T01:01:12;97700.84;;;18.75;85.22
72525;BME280;60547;48.502;8.996;2022-07-29T01:03:37;97704.16;;;18.74;85.37
72525;BME280;60547;48.502;8.996;2022-07-29T01:06:03;97702.53;;;18.67;85.74
72525;BME280;60547;48.502;8.996;2022-07-29T01:08:31;97699.78;;;18.73;86.03
72525;BME280;60547;48.502;8.996;2022-07-29T01:10:57;97691.28;;;18.67;86.25
72525;BME280;60547;48.502;8.996;2022-07-29T01:13:23;97686.63;;;18.64;85.49
72525;BME280;60547;48.502;8.996;2022-07-29T01:15:59;97692.53;;;18.66;85.25
72525;BME280;60547;48.502;8.996;2022-07-29T01:18:37;97681.19;;;18.60;85.11
72525;BME280;60547;48.502;8.996;2022-07-29T01:30:07;97681.13;;;18.55;84.77
72525;BME280;60547;48.502;8.996;2022-07-29T01:32:36;97677.75;;;18.51;85.41
72525;BME280;60547;48.502;8.996;2022-07-29T01:37:50;97678.72;;;18.48;85.12
72525;BME280;60547;48.502;8.996;2022-07-29T01:40:25;97664.56;;;18.42;84.84
72525;BME280;60547;48.502;8.996;2022-07-29T01:42:55;97667.91;;;18.40;84.59
72525;BME280;60547;48.502;8.996;2022-07-29T01:45:32;97658.03;;;18.30;84.81
72525;BME280;60547;48.502;8.996;2022-07-29T01:48:05;97666.22;;;18.28;85.43
72525;BME280;60547;48.502;8.996;2022-07-29T01:50:33;97668.53;;;18.30;85.38
72525;BME280;60547;48.502;8.996;2022-07-29T01:53:03;97668.25;;;18.28;85.44
72525;BME280;60547;48.502;8.996;2022-07-29T01:55:36;97658.41;;;18.18;85.59
72525;BME280;60547;48.502;8.996;2022-07-29T01:58:05;97667.63;;;18.18;85.29
72525;BME280;60547;48.502;8.996;2022-07-29T02:00:32;97673.41;;;18.09;85.09
72525;BME280;60547;48.502;8.996;2022-07-29T02:02:59;97668.00;;;18.05;84.93
72525;BME280;60547;48.502;8.996;2022-07-29T02:05:28;97664.25;;;18.14;84.76
72525;BME280;60547;48.502;8.996;2022-07-29T02:07:57;97661.88;;;18.07;85.09
72525;BME280;60547;48.502;8.996;2022-07-29T02:10:26;97659.81;;;18.07;85.13
72525;BME280;60547;48.502;8.996;2022-07-29T02:12:54;97662.16;;;18.09;84.62
72525;BME280;60547;48.502;8.996;2022-07-29T02:15:24;97662.84;;;18.04;85.28
72525;BME280;60547;48.502;8.996;2022-07-29T02:17:58;97665.38;;;18.02;85.33
72525;BME280;60547;48.502;8.996;2022-07-29T02:20:26;97658.63;;;17.94;84.83
72525;BME280;60547;48.502;8.996;2022-07-29T02:22:53;97666.00;;;17.91;84.49
72525;BME280;60547;48.502;8.996;2022-07-29T02:25:20;97663.91;;;17.86;85.69
72525;BME280;60547;48.502;8.996;2022-07-29T02:27:49;97671.94;;;17.93;85.70
72525;BME280;60547;48.502;8.996;2022-07-29T02:30:15;97670.94;;;17.96;85.34
72525;BME280;60547;48.502;8.996;2022-07-29T02:32:43;97675.53;;;17.94;84.95
72525;BME280;60547;48.502;8.996;2022-07-29T02:35:13;97668.75;;;17.86;84.81
72525;BME280;60547;48.502;8.996;2022-07-29T02:37:40;97668.75;;;17.86;85.45
72525;BME280;60547;48.502;8.996;2022-07-29T02:40:10;97663.13;;;17.86;85.74
72525;BME280;60547;48.502;8.996;2022-07-29T02:42:36;97672.41;;;17.92;84.98
72525;BME280;60547;48.502;8.996;2022-07-29T02:45:04;97659.03;;;17.87;85.02
72525;BME280;60547;48.502;8.996;2022-07-29T02:47:41;97666.94;;;17.83;85.17
72525;BME280;60547;48.502;8.996;2022-07-29T02:50:17;97655.03;;;17.73;85.57
72525;BME280;60547;48.502;8.996;2022-07-29T02:52:53;97662.63;;;17.67;85.29
72525;BME280;60547;48.502;8.996;2022-07-29T02:55:56;97664.16;;;17.68;85.19
72525;BME280;60547;48.502;8.996;2022-07-29T02:58:34;97666.69;;;17.66;84.92
72525;BME280;60547;48.502;8.996;2022-07-29T03:01:07;97676.19;;;17.68;85.11
72525;BME280;60547;48.502;8.996;2022-07-29T03:03:36;97679.31;;;17.70;84.72
72525;BME280;60547;48.502;8.996;2022-07-29T03:06:03;97675.91;;;17.66;84.78
72525;BME280;60547;48.502;8.996;2022-07-29T03:08:30;97671.34;;;17.54;84.95
72525;BME280;60547;48.502;8.996;2022-07-29T03:10:57;97666.72;;;17.51;84.73
72525;BME280;60547;48.502;8.996;2022-07-29T03:13:23;97683.59;;;17.51;84.72
72525;BME280;60547;48.502;8.996;2022-07-29T03:15:49;97687.88;;;17.47;84.92
72525;BME280;60547;48.502;8.996;2022-07-29T03:18:15;97681.34;;;17.55;84.69
72525;BME280;60547;48.502;8.996;2022-07-29T03:20:41;97676.41;;;17.50;84.53
72525;BME280;60547;48.502;8.996;2022-07-29T03:23:10;97674.50;;;17.41;85.05
72525;BME280;60547;48.502;8.996;2022-07-29T03:25:35;97680.59;;;17.40;85.34
72525;BME280;60547;48.502;8.996;2022-07-29T03:28:01;97672.84;;;17.35;85.28
72525;BME280;60547;48.502;8.996;2022-07-29T03:30:26;97671.19;;;17.43;84.91
72525;BME280;60547;48.502;8.996;2022-07-29T03:32:53;97668.00;;;17.35;85.50
72525;BME280;60547;48.502;8.996;2022-07-29T03:35:19;97676.25;;;17.39;84.94
72525;BME280;60547;48.502;8.996;2022-07-29T03:37:45;97663.56;;;17.29;85.14
72525;BME280;60547;48.502;8.996;2022-07-29T03:40:14;97672.28;;;17.31;85.24
72525;BME280;60547;48.502;8.996;2022-07-29T03:42:42;97674.72;;;17.23;85.31
72525;BME280;60547;48.502;8.996;2022-07-29T03:45:10;97680.16;;;17.27;85.49
72525;BME280;60547;48.502;8.996;2022-07-29T03:47:40;97665.72;;;17.19;86.24
72525;BME280;60547;48.502;8.996;2022-07-29T03:50:08;97678.31;;;17.24;85.88
72525;BME280;60547;48.502;8.996;2022-07-29T03:52:36;97680.06;;;17.21;85.15
72525;BME280;60547;48.502;8.996;2022-07-29T03:55:02;97681.31;;;17.20;85.32
72525;BME280;60547;48.502;8.996;2022-07-29T03:57:30;97687.03;;;17.26;86.02
72525;BME280;60547;48.502;8.996;2022-07-29T03:59:56;97672.69;;;17.24;85.43
72525;BME280;60547;48.502;8.996;2022-07-29T04:02:22;97670.84;;;17.21;85.72
72525;BME280;60547;48.502;8.996;2022-07-29T04:04:48;97677.25;;;17.21;85.67
72525;BME280;60547;48.502;8.996;2022-07-29T04:07:14;97668.16;;;17.11;85.25
72525;BME280;60547;48.502;8.996;2022-07-29T04:09:41;97672.78;;;17.15;85.45
72525;BME280;60547;48.502;8.996;2022-07-29T04:12:06;97669.69;;;17.13;85.22
72525;BME280;60547;48.502;8.996;2022-07-29T04:14:33;97661.94;;;17.07;85.29
72525;BME280;60547;48.502;8.996;2022-07-29T04:17:00;97682.00;;;17.15;85.43
72525;BME280;60547;48.502;8.996;2022-07-29T04:19:25;97668.53;;;17.04;85.99
72525;BME280;60547;48.502;8.996;2022-07-29T04:21:51;97676.09;;;17.13;85.46
72525;BME280;60547;48.502;8.996;2022-07-29T04:24:16;97679.97;;;17.16;85.19
72525;BME280;60547;48.502;8.996;2022-07-29T04:26:42;97679.78;;;17.19;85.23
72525;BME280;60547;48.502;8.996;2022-07-29T04:29:07;97671.72;;;17.12;85.06
72525;BME280;60547;48.502;8.996;2022-07-29T04:31:33;97676.56;;;17.11;85.02
72525;BME280;60547;48.502;8.996;2022-07-29T04:33:58;97662.34;;;17.00;86.05
72525;BME280;60547;48.502;8.996;2022-07-29T04:36:24;97679.00;;;17.04;86.10
72525;BME280;60547;48.502;8.996;2022-07-29T04:38:49;97682.69;;;17.10;85.59
72525;BME280;60547;48.502;8.996;2022-07-29T04:41:14;97667.00;;;16.89;86.78
72525;BME280;60547;48.502;8.996;2022-07-29T04:43:40;97680.56;;;17.05;86.25
72525;BME280;60547;48.502;8.996;2022-07-29T04:46:06;97677.94;;;17.01;86.13
72525;BME280;60547;48.502;8.996;2022-07-29T04:48:32;97667.06;;;17.09;85.62
72525;BME280;60547;48.502;8.996;2022-07-29T04:50:57;97683.66;;;17.07;85.64
72525;BME280;60547;48.502;8.996;2022-07-29T04:53:23;97691.22;;;17.16;85.75
72525;BME280;60547;48.502;8.996;2022-07-29T04:55:48;97682.69;;;17.10;85.52
72525;BME280;60547;48.502;8.996;2022-07-29T04:58:14;97675.50;;;17.09;86.10
72525;BME280;60547;48.502;8.996;2022-07-29T05:00:40;97687.72;;;17.21;85.95
72525;BME280;60547;48.502;8.996;2022-07-29T05:03:05;97693.91;;;17.25;85.44
72525;BME280;60547;48.502;8.996;2022-07-29T05:05:31;97696.81;;;17.30;85.26
72525;BME280;60547;48.502;8.996;2022-07-29T05:07:56;97689.75;;;17.35;85.69
72525;BME280;60547;48.502;8.996;2022-07-29T05:10:22;97703.00;;;17.49;85.75
72525;BME280;60547;48.502;8.996;2022-07-29T05:12:48;97701.03;;;17.55;86.38
72525;BME280;60547;48.502;8.996;2022-07-29T05:15:13;97696.28;;;17.61;85.73
72525;BME280;60547;48.502;8.996;2022-07-29T05:17:39;97699.97;;;17.67;84.13
72525;BME280;60547;48.502;8.996;2022-07-29T05:20:05;97705.28;;;17.65;85.09
72525;BME280;60547;48.502;8.996;2022-07-29T05:22:31;97702.47;;;17.65;85.21
72525;BME280;60547;48.502;8.996;2022-07-29T05:24:56;97703.38;;;17.71;85.16
72525;BME280;60547;48.502;8.996;2022-07-29T05:27:22;97708.59;;;17.79;84.86
72525;BME280;60547;48.502;8.996;2022-07-29T05:29:47;97699.28;;;17.72;84.76
72525;BME280;60547;48.502;8.996;2022-07-29T05:32:13;97699.66;;;17.80;83.71
72525;BME280;60547;48.502;8.996;2022-07-29T05:34:38;97710.78;;;17.89;83.64
72525;BME280;60547;48.502;8.996;2022-07-29T05:37:04;97712.97;;;18.00;84.54
72525;BME280;60547;48.502;8.996;2022-07-29T05:39:30;97712.41;;;17.96;82.87
72525;BME280;60547;48.502;8.996;2022-07-29T05:41:55;97721.13;;;17.98;84.03
72525;BME280;60547;48.502;8.996;2022-07-29T05:44:21;97708.69;;;18.04;83.26
72525;BME280;60547;48.502;8.996;2022-07-29T05:46:46;97706.34;;;18.03;83.90
72525;BME280;60547;48.502;8.996;2022-07-29T05:49:12;97722.84;;;18.10;84.46
72525;BME280;60547;48.502;8.996;2022-07-29T05:51:37;97721.00;;;18.07;84.55
72525;BME280;60547;48.502;8.996;2022-07-29T05:54:02;97726.16;;;18.08;83.69
72525;BME280;60547;48.502;8.996;2022-07-29T05:56:30;97723.53;;;18.05;84.20
72525;BME280;60547;48.502;8.996;2022-07-29T05:58:56;97722.69;;;17.99;84.71
72525;BME280;60547;48.502;8.996;2022-07-29T06:01:21;97711.28;;;17.88;85.04
72525;BME280;60547;48.502;8.996;2022-07-29T06:03:47;97734.44;;;17.97;85.09
72525;BME280;60547;48.502;8.996;2022-07-29T06:06:12;97720.78;;;17.90;85.14
72525;BME280;60547;48.502;8.996;2022-07-29T06:08:38;97733.66;;;17.97;85.25
72525;BME280;60547;48.502;8.996;2022-07-29T06:11:04;97730.16;;;18.02;85.02
72525;BME280;60547;48.502;8.996;2022-07-29T06:13:30;97731.78;;;18.08;85.14
72525;BME280;60547;48.502;8.996;2022-07-29T06:15:56;97736.56;;;18.23;84.84
72525;BME280;60547;48.502;8.996;2022-07-29T06:18:21;97743.41;;;18.57;84.12
72525;BME280;60547;48.502;8.996;2022-07-29T06:20:50;97735.63;;;18.92;81.49
72525;BME280;60547;48.502;8.996;2022-07-29T06:23:16;97741.06;;;19.53;78.56
72525;BME280;60547;48.502;8.996;2022-07-29T06:25:41;97732.59;;;19.90;78.65
72525;BME280;60547;48.502;8.996;2022-07-29T06:28:07;97735.38;;;20.27;77.79
72525;BME280;60547;48.502;8.996;2022-07-29T06:30:32;97727.44;;;20.31;77.03
72525;BME280;60547;48.502;8.996;2022-07-29T06:32:58;97745.56;;;20.08;75.73
72525;BME280;60547;48.502;8.996;2022-07-29T06:35:23;97733.03;;;20.20;76.38
72525;BME280;60547;48.502;8.996;2022-07-29T06:37:48;97740.91;;;20.48;75.97
72525;BME280;60547;48.502;8.996;2022-07-29T06:40:14;97748.94;;;20.72;77.01
72525;BME280;60547;48.502;8.996;2022-07-29T06:42:58;97740.28;;;20.98;76.38
72525;BME280;60547;48.502;8.996;2022-07-29T06:45:23;97756.75;;;21.05;76.17
72525;BME280;60547;48.502;8.996;2022-07-29T06:47:49;97744.91;;;21.06;75.00
72525;BME280;60547;48.502;8.996;2022-07-29T06:50:15;97746.72;;;21.04;76.26
72525;BME280;60547;48.502;8.996;2022-07-29T06:52:40;97755.47;;;21.00;75.44
72525;BME280;60547;48.502;8.996;2022-07-29T06:55:07;97752.63;;;20.94;75.09
72525;BME280;60547;48.502;8.996;2022-07-29T06:57:33;97751.78;;;20.77;74.71
72525;BME280;60547;48.502;8.996;2022-07-29T06:59:58;97752.72;;;20.52;74.58
72525;BME280;60547;48.502;8.996;2022-07-29T07:02:24;97752.25;;;20.59;75.47
72525;BME280;60547;48.502;8.996;2022-07-29T07:04:49;97752.19;;;20.48;74.89
72525;BME280;60547;48.502;8.996;2022-07-29T07:07:15;97758.00;;;20.33;74.86
72525;BME280;60547;48.502;8.996;2022-07-29T07:09:40;97752.31;;;20.22;76.45
72525;BME280;60547;48.502;8.996;2022-07-29T07:12:06;97755.66;;;20.26;76.69
72525;BME280;60547;48.502;8.996;2022-07-29T07:14:32;97767.09;;;20.43;75.06
72525;BME280;60547;48.502;8.996;2022-07-29T07:16:57;97767.13;;;20.54;74.21
72525;BME280;60547;48.502;8.996;2022-07-29T07:19:26;97766.06;;;20.46;74.95
72525;BME280;60547;48.502;8.996;2022-07-29T07:21:57;97766.06;;;20.46;76.58
72525;BME280;60547;48.502;8.996;2022-07-29T07:24:22;97760.81;;;20.27;77.26
72525;BME280;60547;48.502;8.996;2022-07-29T07:26:48;97755.28;;;20.50;77.23
72525;BME280;60547;48.502;8.996;2022-07-29T07:29:13;97762.81;;;20.64;75.49
72525;BME280;60547;48.502;8.996;2022-07-29T07:31:38;97762.06;;;20.69;75.20
72525;BME280;60547;48.502;8.996;2022-07-29T07:34:04;97759.56;;;20.93;73.52
72525;BME280;60547;48.502;8.996;2022-07-29T07:36:30;97772.16;;;20.98;73.75
72525;BME280;60547;48.502;8.996;2022-07-29T07:38:55;97757.00;;;20.95;73.53
72525;BME280;60547;48.502;8.996;2022-07-29T07:41:21;97760.91;;;21.20;74.56
72525;BME280;60547;48.502;8.996;2022-07-29T07:43:46;97750.66;;;21.28;72.71
72525;BME280;60547;48.502;8.996;2022-07-29T07:46:12;97744.69;;;21.21;74.45
72525;BME280;60547;48.502;8.996;2022-07-29T07:48:37;97754.25;;;21.51;73.51
72525;BME280;60547;48.502;8.996;2022-07-29T07:51:03;97767.91;;;21.70;71.71
72525;BME280;60547;48.502;8.996;2022-07-29T07:53:28;97754.53;;;21.53;73.97
72525;BME280;60547;48.502;8.996;2022-07-29T07:55:55;97768.94;;;21.67;73.74
72525;BME280;60547;48.502;8.996;2022-07-29T07:58:20;97756.31;;;21.62;73.37
72525;BME280;60547;48.502;8.996;2022-07-29T08:00:46;97761.47;;;21.69;71.71
72525;BME280;60547;48.502;8.996;2022-07-29T08:03:12;97757.59;;;21.67;73.41
72525;BME280;60547;48.502;8.996;2022-07-29T08:05:39;97758.38;;;21.56;76.11
72525;BME280;60547;48.502;8.996;2022-07-29T08:08:05;97758.88;;;21.88;74.10
72525;BME280;60547;48.502;8.996;2022-07-29T08:10:31;97757.84;;;22.02;71.75
72525;BME280;60547;48.502;8.996;2022-07-29T08:13:15;97756.53;;;22.20;72.25
72525;BME280;60547;48.502;8.996;2022-07-29T08:15:40;97754.69;;;22.34;71.17
72525;BME280;60547;48.502;8.996;2022-07-29T08:18:10;97756.22;;;22.40;69.78
72525;BME280;60547;48.502;8.996;2022-07-29T08:20:36;97752.34;;;22.38;70.30
72525;BME280;60547;48.502;8.996;2022-07-29T08:23:04;97754.13;;;22.46;68.65
72525;BME280;60547;48.502;8.996;2022-07-29T08:25:37;97751.72;;;22.67;67.40
72525;BME280;60547;48.502;8.996;2022-07-29T08:28:05;97744.44;;;22.77;67.96
72525;BME280;60547;48.502;8.996;2022-07-29T08:30:31;97738.50;;;22.86;65.99
72525;BME280;60547;48.502;8.996;2022-07-29T08:32:57;97748.69;;;23.06;65.58
72525;BME280;60547;48.502;8.996;2022-07-29T08:35:24;97751.78;;;23.08;63.11
72525;BME280;60547;48.502;8.996;2022-07-29T08:37:50;97749.22;;;23.05;60.87
72525;BME280;60547;48.502;8.996;2022-07-29T08:40:16;97748.16;;;23.13;61.29
72525;BME280;60547;48.502;8.996;2022-07-29T08:42:42;97736.56;;;23.06;61.21
72525;BME280;60547;48.502;8.996;2022-07-29T08:45:08;97758.09;;;23.31;60.14
72525;BME280;60547;48.502;8.996;2022-07-29T08:47:33;97766.25;;;23.46;59.86
72525;BME280;60547;48.502;8.996;2022-07-29T08:50:02;97754.06;;;23.57;58.07
72525;BME280;60547;48.502;8.996;2022-07-29T08:52:29;97755.75;;;23.71;58.58
72525;BME280;60547;48.502;8.996;2022-07-29T08:54:58;97763.66;;;23.83;56.78
72525;BME280;60547;48.502;8.996;2022-07-29T08:57:24;97765.84;;;23.96;57.73
72525;BME280;60547;48.502;8.996;2022-07-29T08:59:51;97769.66;;;24.04;56.33
72525;BME280;60547;48.502;8.996;2022-07-29T09:02:21;97764.69;;;24.10;56.50
72525;BME280;60547;48.502;8.996;2022-07-29T09:04:48;97773.72;;;24.39;54.68
72525;BME280;60547;48.502;8.996;2022-07-29T09:07:16;97766.19;;;24.41;54.58
72525;BME280;60547;48.502;8.996;2022-07-29T09:09:42;97758.47;;;24.36;54.64
72525;BME280;60547;48.502;8.996;2022-07-29T09:12:09;97758.75;;;24.57;53.26
72525;BME280;60547;48.502;8.996;2022-07-29T09:14:38;97763.84;;;24.64;54.21
72525;BME280;60547;48.502;8.996;2022-07-29T09:17:05;97761.44;;;24.50;54.81
72525;BME280;60547;48.502;8.996;2022-07-29T09:19:33;97755.44;;;24.53;57.38
72525;BME280;60547;48.502;8.996;2022-07-29T09:22:01;97757.28;;;24.51;55.61
72525;BME280;60547;48.502;8.996;2022-07-29T09:24:47;97759.72;;;24.41;56.20
72525;BME280;60547;48.502;8.996;2022-07-29T09:27:22;97758.06;;;24.51;56.70
72525;BME280;60547;48.502;8.996;2022-07-29T09:30:04;97754.47;;;24.69;56.34
72525;BME280;60547;48.502;8.996;2022-07-29T09:32:31;97752.09;;;24.73;55.95
72525;BME280;60547;48.502;8.996;2022-07-29T09:35:19;97757.34;;;24.88;53.78
72525;BME280;60547;48.502;8.996;2022-07-29T09:37:45;97748.41;;;24.78;54.06
72525;BME280;60547;48.502;8.996;2022-07-29T09:40:13;97749.31;;;24.87;53.76
72525;BME280;60547;48.502;8.996;2022-07-29T09:42:39;97738.59;;;24.98;53.08
72525;BME280;60547;48.502;8.996;2022-07-29T09:45:04;97745.03;;;25.18;53.46
72525;BME280;60547;48.502;8.996;2022-07-29T09:47:47;97736.25;;;25.34;53.27
72525;BME280;60547;48.502;8.996;2022-07-29T09:50:15;97746.19;;;25.60;51.91
72525;BME280;60547;48.502;8.996;2022-07-29T09:52:51;97729.53;;;25.64;52.89
72525;BME280;60547;48.502;8.996;2022-07-29T09:55:19;97728.63;;;25.88;48.56
72525;BME280;60547;48.502;8.996;2022-07-29T09:57:45;97734.88;;;25.86;48.40
72525;BME280;60547;48.502;8.996;2022-07-29T10:00:20;97728.31;;;25.91;50.08
72525;BME280;60547;48.502;8.996;2022-07-29T10:02:48;97731.97;;;26.05;49.26
72525;BME280;60547;48.502;8.996;2022-07-29T10:05:24;97718.56;;;26.13;46.68
72525;BME280;60547;48.502;8.996;2022-07-29T10:10:24;97717.63;;;26.50;47.96
72525;BME280;60547;48.502;8.996;2022-07-29T10:12:53;97713.31;;;26.70;45.67
72525;BME280;60547;48.502;8.996;2022-07-29T10:15:21;97705.47;;;26.97;47.25
72525;BME280;60547;48.502;8.996;2022-07-29T10:17:46;97695.28;;;27.22;45.30
72525;BME280;60547;48.502;8.996;2022-07-29T10:20:13;97687.81;;;27.40;44.33
72525;BME280;60547;48.502;8.996;2022-07-29T10:22:40;97679.78;;;27.18;42.65
72525;BME280;60547;48.502;8.996;2022-07-29T10:25:06;97691.19;;;26.97;45.51
72525;BME280;60547;48.502;8.996;2022-07-29T10:27:32;97686.63;;;26.67;46.24
72525;BME280;60547;48.502;8.996;2022-07-29T10:29:57;97698.47;;;26.71;46.05
72525;BME280;60547;48.502;8.996;2022-07-29T10:36:01;97696.50;;;26.66;49.36
72525;BME280;60547;48.502;8.996;2022-07-29T10:43:59;97687.41;;;26.68;44.96
72525;BME280;60547;48.502;8.996;2022-07-29T10:46:26;97689.69;;;26.69;46.24
72525;BME280;60547;48.502;8.996;2022-07-29T10:52:08;97679.72;;;27.10;39.37
72525;BME280;60547;48.502;8.996;2022-07-29T10:54:46;97687.03;;;27.19;38.98
72525;BME280;60547;48.502;8.996;2022-07-29T10:57:19;97686.50;;;27.41;37.72
72525;BME280;60547;48.502;8.996;2022-07-29T11:07:35;97700.75;;;27.75;36.99
72525;BME280;60547;48.502;8.996;2022-07-29T11:15:16;97702.00;;;25.98;47.10
72525;BME280;60547;48.502;8.996;2022-07-29T11:23:16;97700.06;;;27.07;45.34
72525;BME280;60547;48.502;8.996;2022-07-29T11:25:42;97694.25;;;26.99;45.17
72525;BME280;60547;48.502;8.996;2022-07-29T11:28:12;97688.59;;;27.20;45.69
72525;BME280;60547;48.502;8.996;2022-07-29T11:30:49;97685.09;;;27.34;44.85
72525;BME280;60547;48.502;8.996;2022-07-29T11:33:32;97691.50;;;27.27;45.00
72525;BME280;60547;48.502;8.996;2022-07-29T11:36:14;97693.97;;;27.44;41.97
72525;BME280;60547;48.502;8.996;2022-07-29T11:38:40;97693.13;;;27.78;43.78
72525;BME280;60547;48.502;8.996;2022-07-29T11:41:26;97691.03;;;27.78;39.65
72525;BME280;60547;48.502;8.996;2022-07-29T11:43:56;97701.72;;;28.27;38.82
72525;BME280;60547;48.502;8.996;2022-07-29T11:49:06;97693.00;;;27.42;40.13
72525;BME280;60547;48.502;8.996;2022-07-29T11:51:33;97683.69;;;27.07;40.87
72525;BME280;60547;48.502;8.996;2022-07-29T11:53:59;97689.69;;;27.17;40.36
72525;BME280;60547;48.502;8.996;2022-07-29T11:56:25;97704.06;;;26.77;40.15
72525;BME280;60547;48.502;8.996;2022-07-29T11:59:05;97698.53;;;27.06;41.52
72525;BME280;60547;48.502;8.996;2022-07-29T12:01:31;97699.50;;;27.08;43.93
72525;BME280;60547;48.502;8.996;2022-07-29T12:04:07;97696.69;;;27.50;42.86
72525;BME280;60547;48.502;8.996;2022-07-29T12:06:33;97705.06;;;27.48;41.76
72525;BME280;60547;48.502;8.996;2022-07-29T12:08:59;97702.69;;;27.05;42.54
72525;BME280;60547;48.502;8.996;2022-07-29T12:11:25;97696.22;;;27.04;43.88
72525;BME280;60547;48.502;8.996;2022-07-29T12:13:51;97710.50;;;27.04;44.91
72525;BME280;60547;48.502;8.996;2022-07-29T12:16:17;97711.31;;;27.25;44.00
72525;BME280;60547;48.502;8.996;2022-07-29T12:18:54;97701.34;;;27.19;44.18
72525;BME280;60547;48.502;8.996;2022-07-29T12:21:20;97714.69;;;27.03;44.04
72525;BME280;60547;48.502;8.996;2022-07-29T12:23:52;97700.88;;;26.81;44.52
72525;BME280;60547;48.502;8.996;2022-07-29T12:26:18;97699.81;;;27.39;42.84
72525;BME280;60547;48.502;8.996;2022-07-29T12:28:44;97698.22;;;27.51;42.94
72525;BME280;60547;48.502;8.996;2022-07-29T12:31:14;97707.78;;;27.95;42.33
72525;BME280;60547;48.502;8.996;2022-07-29T12:33:39;97697.59;;;28.15;43.35
72525;BME280;60547;48.502;8.996;2022-07-29T12:36:05;97703.94;;;28.21;42.95
72525;BME280;60547;48.502;8.996;2022-07-29T12:38:31;97702.22;;;28.18;41.69
72525;BME280;60547;48.502;8.996;2022-07-29T12:40:57;97705.47;;;27.93;41.42
72525;BME280;60547;48.502;8.996;2022-07-29T12:43:24;97713.03;;;27.83;42.57
72525;BME280;60547;48.502;8.996;2022-07-29T12:45:51;97711.91;;;27.65;42.70
72525;BME280;60547;48.502;8.996;2022-07-29T12:48:17;97713.09;;;27.70;41.68
72525;BME280;60547;48.502;8.996;2022-07-29T12:50:59;97715.50;;;27.24;44.33
72525;BME280;60547;48.502;8.996;2022-07-29T12:53:25;97707.81;;;27.19;46.25
72525;BME280;60547;48.502;8.996;2022-07-29T12:55:52;97718.81;;;27.15;47.12
72525;BME280;60547;48.502;8.996;2022-07-29T12:58:35;97717.00;;;26.91;47.35
72525;BME280;60547;48.502;8.996;2022-07-29T13:01:03;97752.19;;;26.47;51.22
72525;BME280;60547;48.502;8.996;2022-07-29T13:03:44;97752.66;;;25.28;53.12
72525;BME280;60547;48.502;8.996;2022-07-29T13:06:30;97773.59;;;24.50;53.80
72525;BME280;60547;48.502;8.996;2022-07-29T13:09:06;97750.56;;;23.99;54.36
72525;BME280;60547;48.502;8.996;2022-07-29T13:11:52;97748.91;;;23.85;54.88
72525;BME280;60547;48.502;8.996;2022-07-29T13:14:31;97744.94;;;23.94;53.74
72525;BME280;60547;48.502;8.996;2022-07-29T13:17:10;97744.28;;;24.06;53.47
72525;BME280;60547;48.502;8.996;2022-07-29T13:22:07;97748.63;;;24.13;53.13
72525;BME280;60547;48.502;8.996;2022-07-29T13:24:33;97759.78;;;23.81;53.45
72525;BME280;60547;48.502;8.996;2022-07-29T13:26:58;97750.22;;;24.08;53.32
72525;BME280;60547;48.502;8.996;2022-07-29T13:29:24;97750.78;;;24.31;51.86
72525;BME280;60547;48.502;8.996;2022-07-29T13:31:51;97745.03;;;24.37;53.35
72525;BME280;60547;48.502;8.996;2022-07-29T13:34:17;97743.72;;;24.38;53.36
72525;BME280;60547;48.502;8.996;2022-07-29T13:36:44;97743.03;;;24.32;51.20
72525;BME280;60547;48.502;8.996;2022-07-29T13:39:09;97744.06;;;24.53;49.34
72525;BME280;60547;48.502;8.996;2022-07-29T13:41:36;97744.44;;;24.44;49.30
72525;BME280;60547;48.502;8.996;2022-07-29T13:44:02;97749.91;;;24.61;49.66
72525;BME280;60547;48.502;8.996;2022-07-29T13:46:27;97749.38;;;24.62;50.42
72525;BME280;60547;48.502;8.996;2022-07-29T13:48:53;97748.53;;;24.67;50.89
72525;BME280;60547;48.502;8.996;2022-07-29T13:51:18;97752.53;;;24.59;51.24
72525;BME280;60547;48.502;8.996;2022-07-29T13:53:43;97754.84;;;24.60;50.69